createdAt,value
2019-05-15T00:07:48.691Z,20.9
2019-05-15T00:17:48.478Z,20.9
2019-05-15T00:27:49.077Z,20.9
2019-05-15T00:37:46.323Z,20.9
2019-05-15T00:47:45.541Z,20.9
2019-05-15T00:57:44.751Z,20.9
2019-05-15T01:07:43.968Z,20.9
2019-05-15T01:17:43.172Z,20.9
2019-05-15T01:27:42.390Z,20.9
2019-05-15T01:37:41.602Z,20.8
2019-05-15T01:47:40.811Z,20.8
2019-05-15T01:57:40.020Z,20.8
2019-05-15T02:07:39.404Z,20.8
2019-05-15T02:17:39.148Z,20.8
2019-05-15T02:27:39.176Z,20.8
2019-05-15T02:37:40.323Z,20.8
2019-05-15T02:47:39.060Z,20.8
2019-05-15T02:57:35.302Z,20.8
2019-05-15T03:07:34.505Z,20.9
2019-05-15T03:17:33.716Z,20.8
2019-05-15T03:27:34.823Z,20.8
2019-05-15T03:37:33.788Z,20.8
2019-05-15T03:47:31.360Z,20.8
2019-05-15T03:57:30.700Z,20.8
2019-05-15T04:07:29.784Z,20.8
2019-05-15T04:17:29.559Z,20.6
2019-05-15T04:27:29.059Z,20.4
2019-05-15T04:37:29.845Z,20.4
2019-05-15T04:47:29.917Z,20.4
2019-05-15T04:57:30.209Z,20.4
2019-05-15T05:07:25.061Z,20.4
2019-05-15T05:17:24.275Z,20.5
2019-05-15T05:27:23.535Z,20.5
2019-05-15T05:37:22.697Z,20.5
2019-05-15T05:47:21.907Z,20.6
2019-05-15T05:57:21.114Z,20.6
2019-05-15T06:07:20.325Z,20.6
2019-05-15T06:17:19.543Z,20.6
2019-05-15T06:27:19.946Z,20.7
2019-05-15T06:37:19.606Z,20.8
2019-05-15T06:47:17.973Z,20.8
2019-05-15T06:57:18.357Z,20.8
2019-05-15T07:07:18.039Z,20.9
2019-05-15T07:17:14.810Z,20.9
2019-05-15T07:27:14.012Z,21
2019-05-15T07:37:13.222Z,21
2019-05-15T07:47:12.440Z,21.1
2019-05-15T07:57:11.651Z,21.2
2019-05-15T08:07:10.866Z,21.3
2019-05-15T08:17:10.123Z,21.4
2019-05-15T08:27:09.283Z,21.4
2019-05-15T08:37:08.492Z,21.3
2019-05-15T08:47:08.218Z,21.3
2019-05-15T08:57:08.426Z,21.3
2019-05-15T09:07:08.939Z,21.3
2019-05-15T09:17:05.335Z,21.3
2019-05-15T09:27:04.541Z,21.4
2019-05-15T09:37:03.804Z,21.4
2019-05-15T09:47:03.013Z,21.4
2019-05-15T09:57:02.191Z,21.5
2019-05-15T10:07:01.586Z,21.6
2019-05-15T10:17:00.645Z,21.7
2019-05-15T10:26:59.813Z,21.7
2019-05-15T10:36:59.125Z,21.7
2019-05-15T10:46:58.535Z,21.7
2019-05-15T10:57:00.285Z,21.7
2019-05-15T11:06:58.075Z,21.7
2019-05-15T11:16:55.871Z,21.7
2019-05-15T11:26:56.171Z,21.7
2019-05-15T11:36:54.282Z,21.7
2019-05-15T11:46:53.492Z,21.6
2019-05-15T11:56:52.701Z,21.6
2019-05-15T12:06:59.407Z,21.5
2019-05-15T12:17:04.992Z,21.5
2019-05-15T12:26:50.332Z,21.4
2019-05-15T12:36:56.576Z,21.4
2019-05-15T13:06:47.250Z,21.2
2019-05-15T13:16:33.975Z,21.2
2019-05-15T13:26:33.181Z,21.1
2019-05-15T13:36:32.426Z,21
2019-05-15T13:46:32.949Z,21
2019-05-15T13:56:30.812Z,20.9
2019-05-15T14:06:30.022Z,20.9
2019-05-15T14:16:29.234Z,20.9
2019-05-15T14:26:28.448Z,20.8
2019-05-15T14:36:28.710Z,20.8
2019-05-15T21:08:02.230Z,20.8
2019-05-15T21:18:13.405Z,20.7
2019-05-15T21:28:00.641Z,20.6
2019-05-15T21:37:59.852Z,20.6
2019-05-15T21:48:00.731Z,20.6
2019-05-15T21:57:59.952Z,20.6
2019-05-15T22:07:58.673Z,20.6
2019-05-15T22:17:56.781Z,20.6
2019-05-15T22:27:57.795Z,20.6
2019-05-15T22:37:55.380Z,20.6
2019-05-15T22:47:58.296Z,20.5
2019-05-15T22:57:55.289Z,20.5
2019-05-15T23:07:54.552Z,20.5
2019-05-15T23:17:53.716Z,20.5
2019-05-15T23:27:52.931Z,20.4
2019-05-15T23:37:52.147Z,20.4
2019-05-15T23:47:51.394Z,20.4
2019-05-15T23:57:50.554Z,20.4
